Provo, UT

2:52 PM MST on March 01, 2017 (GMT -0700)
ME4925 | | Change Station

Elev 4637 ft 40.22 °N, 111.63 °W | Updated 15 minutes ago

Partly Cloudy
Partly Cloudy
40.0 °F
Feels Like 40 °F
N
2.0
Wind Variable Wind from West
Gusts 6.0 mph

Today
High -- | Low -- °F
--% Chance of Precip.
Yesterday
High -- | Low -- °F
Precip. -- in
Pressure 30.56 in
Visibility 10.0 miles
Clouds Clear
Windchill 40 °F
Dew Point 18 °F
Humidity 41%
Rainfall 0.01 in
Snow Depth Not available.
6:59 AM 6:18 PM
Waxing Crescent, 13% visible
METAR KPVU 012056Z 18003KT 10SM CLR 02/M07 A3046 RMK AO2 SLP347 T00171072 58009 FZRANO
Pressure 30.56 in
Visibility 10.0 miles
Clouds Clear
Windchill 40 °F
Dew Point 18 °F
Humidity 41%
Rainfall 0.01 in
Snow Depth Not available.
6:59 AM 6:18 PM
Waxing Crescent, 13% visible
METAR KPVU 012056Z 18003KT 10SM CLR 02/M07 A3046 RMK AO2 SLP347 T00171072 58009 FZRANO

Get Your Daily Forecast Email!

Thanks for signing up!

Be on the lookout for a verification email in your inbox.

You'll start receiving the daily forecast at 8 AM.

×

10-Day Weather Forecast

Almanac

Astronomy

Mar. 01, 2017 Rise Set
Actual Time
Civil Twilight
Nautical Twilight
Astronomical Twilight
Moon
Length of Visible Light
Length of Day
Tomorrow will be .
, % of the Moon is Illuminated

Today's Extremes

State Highs State Lows

Community

WunderPhotos

Upload Photos

1,962,540 photos uploaded!

WunderBlog® & News

Nearby

Air Quality

  Air Quality AQ Index Pollutant
Not available.

Snow Depth

Station Depth Elevation

Earthquake Activity

City Distance Mag. Time & Date
Minimum magnitude displayed is 2.5.

Coastal Water Temperatures

Place Temperature

Stations

Nearby Weather Stations

Station Location Temp. Windchill Dew Point Humidity Wind Precip. Elev Updated Type
                   

Watches & Warnings

There are currently no watches in effect.